createdAt,value
2022-08-27T00:00:24.563Z,98077.03
2022-08-27T00:02:54.281Z,98071.81
2022-08-27T00:05:24.443Z,98076.81
2022-08-27T00:07:57.091Z,98077.78
2022-08-27T00:10:29.704Z,98078.56
2022-08-27T00:12:59.552Z,98075.69
2022-08-27T00:15:30.238Z,98071.81
2022-08-27T00:18:00.074Z,98070.16
2022-08-27T00:20:30.109Z,98072.00
2022-08-27T00:23:02.447Z,98077.91
2022-08-27T00:25:32.423Z,98070.91
2022-08-27T00:28:02.043Z,98078.69
2022-08-27T00:30:31.899Z,98081.69
2022-08-27T00:33:01.522Z,98085.25
2022-08-27T00:35:31.274Z,98077.47
2022-08-27T00:38:03.788Z,98086.69
2022-08-27T00:40:34.422Z,98082.16
2022-08-27T00:43:05.152Z,98081.78
2022-08-27T00:45:42.279Z,98079.56
2022-08-27T00:48:15.446Z,98073.47
2022-08-27T00:50:52.097Z,98077.47
2022-08-27T00:53:29.129Z,98077.59
2022-08-27T00:56:02.911Z,98072.94
2022-08-27T00:58:35.522Z,98079.16
2022-08-27T01:01:06.597Z,98079.38
2022-08-27T01:03:36.452Z,98080.00
2022-08-27T01:06:08.949Z,98073.91
2022-08-27T01:08:46.266Z,98072.91
2022-08-27T01:11:16.303Z,98059.38
2022-08-27T01:14:00.131Z,98063.56
2022-08-27T01:16:36.101Z,98064.25
2022-08-27T01:19:09.071Z,98062.00
2022-08-27T01:21:45.818Z,98060.47
2022-08-27T01:24:32.078Z,98058.03
2022-08-27T01:27:02.531Z,98066.69
2022-08-27T01:29:34.152Z,98068.28
2022-08-27T01:32:10.330Z,98068.16
2022-08-27T01:34:40.172Z,98066.13
2022-08-27T01:37:10.731Z,98060.59
2022-08-27T01:39:44.678Z,98055.50
2022-08-27T01:42:19.722Z,98061.81
2022-08-27T01:44:52.231Z,98062.59
2022-08-27T01:47:24.103Z,98063.03
2022-08-27T01:50:01.355Z,98054.47
2022-08-27T01:52:33.970Z,98061.06
2022-08-27T01:55:08.904Z,98053.38
2022-08-27T01:57:39.908Z,98052.38
2022-08-27T02:00:13.745Z,98060.50
2022-08-27T02:02:44.672Z,98057.81
2022-08-27T02:05:14.968Z,98059.16
2022-08-27T02:07:45.570Z,98064.16
2022-08-27T02:10:23.634Z,98056.69
2022-08-27T02:12:54.129Z,98047.59
2022-08-27T02:15:24.313Z,98051.94
2022-08-27T02:17:54.160Z,98049.94
2022-08-27T02:20:25.326Z,98053.69
2022-08-27T02:22:59.497Z,98055.50
2022-08-27T02:25:31.825Z,98045.16
2022-08-27T02:28:02.968Z,98046.25
2022-08-27T02:30:34.569Z,98051.59
2022-08-27T02:33:05.824Z,98052.38
2022-08-27T02:35:39.071Z,98047.69
2022-08-27T02:38:09.403Z,98049.47
2022-08-27T02:40:41.894Z,98057.16
2022-08-27T02:43:15.713Z,98049.94
2022-08-27T02:45:46.254Z,98046.81
2022-08-27T02:48:16.178Z,98047.81
2022-08-27T02:50:47.165Z,98057.25
2022-08-27T02:53:17.384Z,98047.91
2022-08-27T02:55:52.391Z,98050.25
2022-08-27T02:58:22.088Z,98047.25
2022-08-27T03:00:51.774Z,98050.59
2022-08-27T03:03:21.582Z,98047.69
2022-08-27T03:05:51.292Z,98052.56
2022-08-27T03:08:21.081Z,98045.91
2022-08-27T03:10:53.501Z,98049.69
2022-08-27T03:13:23.731Z,98045.72
2022-08-27T03:15:53.532Z,98048.06
2022-08-27T03:18:22.016Z,98053.91
2022-08-27T03:20:53.980Z,98044.03
2022-08-27T03:23:25.870Z,98051.47
2022-08-27T03:26:01.521Z,98060.47
2022-08-27T03:28:34.091Z,98053.72
2022-08-27T03:31:05.805Z,98050.59
2022-08-27T03:33:37.861Z,98057.81
2022-08-27T03:36:08.866Z,98055.03
2022-08-27T03:38:38.825Z,98053.81
2022-08-27T03:41:11.169Z,98049.28
2022-08-27T03:43:40.889Z,98048.16
2022-08-27T03:46:11.274Z,98050.34
2022-08-27T03:48:41.207Z,98050.47
2022-08-27T03:51:15.255Z,98045.25
2022-08-27T03:53:47.259Z,98036.94
2022-08-27T03:56:19.557Z,98040.28
2022-08-27T03:58:49.403Z,98036.16
2022-08-27T04:01:19.550Z,98031.59
2022-08-27T04:03:49.412Z,98029.41
2022-08-27T04:06:19.068Z,98031.41
2022-08-27T04:08:48.778Z,98029.28
2022-08-27T04:11:22.131Z,98040.50
2022-08-27T04:13:51.802Z,98036.28
2022-08-27T04:16:21.591Z,98035.28
2022-08-27T04:18:51.265Z,98038.41
2022-08-27T04:21:20.937Z,98039.94
2022-08-27T04:23:51.058Z,98044.03
2022-08-27T04:26:26.449Z,98038.59
2022-08-27T04:28:56.445Z,98039.34
2022-08-27T04:31:26.293Z,98042.03
2022-08-27T04:33:56.211Z,98050.34
2022-08-27T04:36:25.942Z,98048.59
2022-08-27T04:38:55.672Z,98052.50
2022-08-27T04:41:28.345Z,98055.91
2022-08-27T04:43:59.962Z,98054.81
2022-08-27T04:46:32.293Z,98049.28
2022-08-27T04:49:04.613Z,98051.47
2022-08-27T04:51:40.601Z,98052.59
2022-08-27T04:54:13.150Z,98048.94
2022-08-27T04:56:46.467Z,98049.69
2022-08-27T04:59:16.393Z,98057.59
2022-08-27T05:01:46.439Z,98056.72
2022-08-27T05:04:18.897Z,98052.03
2022-08-27T05:06:50.707Z,98050.47
2022-08-27T05:09:24.627Z,98045.50
2022-08-27T05:11:59.252Z,98049.50
2022-08-27T05:14:30.603Z,98051.03
2022-08-27T05:17:00.813Z,98052.69
2022-08-27T05:19:31.382Z,98053.59
2022-08-27T05:22:01.611Z,98048.50
2022-08-27T05:24:32.498Z,98049.72
2022-08-27T05:27:04.859Z,98047.50
2022-08-27T05:29:34.538Z,98044.47
2022-08-27T05:32:04.212Z,98041.50
2022-08-27T05:34:33.927Z,98039.25
2022-08-27T05:37:03.575Z,98037.72
2022-08-27T05:39:33.282Z,98035.94
2022-08-27T05:42:05.578Z,98041.28
2022-08-27T05:44:42.595Z,98038.84
2022-08-27T05:47:12.915Z,98041.41
2022-08-27T05:49:42.776Z,98050.50
2022-08-27T05:52:14.249Z,98053.28
2022-08-27T05:54:43.909Z,98051.72
2022-08-27T05:57:16.272Z,98044.16
2022-08-27T05:59:58.366Z,98047.72
2022-08-27T06:02:28.602Z,98057.03
2022-08-27T06:04:58.690Z,98054.25
2022-08-27T06:07:29.955Z,98051.63
2022-08-27T06:10:00.195Z,98053.50
2022-08-27T06:12:32.655Z,98052.06
2022-08-27T06:15:02.621Z,98058.03
2022-08-27T06:17:32.272Z,98052.16
2022-08-27T06:20:01.989Z,98049.16
2022-08-27T06:22:31.706Z,98055.81
2022-08-27T06:25:01.374Z,98059.59
2022-08-27T06:27:33.684Z,98060.16
2022-08-27T06:30:03.378Z,98069.94
2022-08-27T06:32:33.063Z,98059.59
2022-08-27T06:35:02.685Z,98066.25
2022-08-27T06:37:32.440Z,98065.59
2022-08-27T06:40:02.189Z,98071.34
2022-08-27T06:42:34.835Z,98065.59
2022-08-27T06:45:06.099Z,98071.38
2022-08-27T06:47:36.566Z,98072.59
2022-08-27T06:50:06.927Z,98075.03
2022-08-27T06:52:37.016Z,98081.91
2022-08-27T06:55:07.945Z,98072.59
2022-08-27T06:57:40.427Z,98072.69
2022-08-27T07:00:12.572Z,98069.91
2022-08-27T07:02:42.256Z,98073.56
2022-08-27T07:05:12.879Z,98073.72
2022-08-27T07:07:46.703Z,98077.81
2022-08-27T07:10:18.222Z,98064.69
2022-08-27T07:12:50.570Z,98071.38
2022-08-27T07:15:22.160Z,98074.13
2022-08-27T07:17:54.925Z,98070.03
2022-08-27T07:20:25.514Z,98071.56
2022-08-27T07:22:58.769Z,98079.13
2022-08-27T07:25:28.476Z,98077.56
2022-08-27T07:28:01.116Z,98076.34
2022-08-27T07:30:30.828Z,98084.13
2022-08-27T07:33:00.547Z,98085.25
2022-08-27T07:35:31.725Z,98084.16
2022-08-27T07:38:01.598Z,98081.13
2022-08-27T07:40:31.408Z,98089.91
2022-08-27T07:43:30.799Z,98093.03
2022-08-27T07:46:04.629Z,98086.34
2022-08-27T07:48:36.625Z,98095.28
2022-08-27T07:51:08.627Z,98095.78
2022-08-27T07:53:38.309Z,98095.28
2022-08-27T07:56:09.847Z,98101.59
2022-08-27T07:58:43.114Z,98105.47
2022-08-27T08:01:13.936Z,98103.13
2022-08-27T08:03:44.441Z,98103.91
2022-08-27T08:06:16.696Z,98096.91
2022-08-27T08:08:46.499Z,98104.47
2022-08-27T08:11:18.416Z,98104.03
2022-08-27T08:13:50.857Z,98119.81
2022-08-27T08:16:21.180Z,98113.91
2022-08-27T08:18:50.909Z,98118.00
2022-08-27T08:21:20.712Z,98119.00
2022-08-27T08:23:50.666Z,98118.34
2022-08-27T08:26:20.492Z,98110.44
2022-08-27T08:28:52.871Z,98108.47
2022-08-27T08:31:24.250Z,98114.78
2022-08-27T08:33:54.929Z,98115.34
2022-08-27T08:36:24.670Z,98119.66
2022-08-27T08:38:54.446Z,98126.22
2022-08-27T08:41:38.137Z,98128.22
2022-08-27T08:44:17.623Z,98124.13
2022-08-27T08:46:52.406Z,98130.97
2022-08-27T08:49:34.815Z,98128.56
2022-08-27T08:52:30.616Z,98133.22
2022-08-27T08:55:11.293Z,98133.97
2022-08-27T08:57:52.044Z,98136.88
2022-08-27T09:00:24.542Z,98136.88
2022-08-27T09:02:57.814Z,98136.66
2022-08-27T09:05:28.252Z,98141.66
2022-08-27T09:08:31.908Z,98148.13
2022-08-27T09:11:08.372Z,98136.88
2022-08-27T09:13:45.498Z,98141.09
2022-08-27T09:16:19.007Z,98135.69
2022-08-27T09:18:52.467Z,98137.19
2022-08-27T09:21:32.726Z,98146.88
2022-08-27T09:24:09.021Z,98140.22
2022-08-27T09:26:42.275Z,98140.34
2022-08-27T09:29:20.391Z,98139.78
2022-08-27T09:31:58.789Z,98133.97
2022-08-27T09:34:35.982Z,98142.22
2022-08-27T09:37:11.204Z,98137.22
2022-08-27T09:39:50.216Z,98138.75
2022-08-27T09:42:32.782Z,98137.66
2022-08-27T09:45:03.022Z,98138.34
2022-08-27T09:47:45.342Z,98132.66
2022-08-27T09:50:15.527Z,98126.78
2022-08-27T09:52:55.225Z,98137.78
2022-08-27T09:55:34.216Z,98120.34
2022-08-27T09:58:06.826Z,98130.47
2022-08-27T10:00:40.126Z,98133.25
2022-08-27T10:03:13.930Z,98127.16
2022-08-27T10:05:50.733Z,98129.25
2022-08-27T10:08:29.045Z,98124.59
2022-08-27T10:11:01.339Z,98132.25
2022-08-27T10:13:36.625Z,98131.69
2022-08-27T10:16:20.272Z,98130.03
2022-08-27T10:19:05.470Z,98125.81
2022-08-27T10:21:44.658Z,98132.50
2022-08-27T10:24:25.168Z,98123.03
2022-08-27T10:27:06.134Z,98125.56
2022-08-27T10:29:44.990Z,98130.56
2022-08-27T10:32:52.325Z,98130.81
2022-08-27T10:35:31.724Z,98135.34
2022-08-27T10:38:13.490Z,98133.69
2022-08-27T10:40:49.114Z,98148.34
2022-08-27T10:43:33.739Z,98138.81
2022-08-27T10:46:17.427Z,98141.94
2022-08-27T10:48:55.766Z,98146.91
2022-08-27T10:51:34.672Z,98149.16
2022-08-27T10:54:13.192Z,98149.38
2022-08-27T10:56:56.951Z,98145.25
2022-08-27T10:59:42.493Z,98152.44
2022-08-27T11:02:22.430Z,98157.22
2022-08-27T11:04:55.623Z,98156.44
2022-08-27T11:07:32.388Z,98159.78
2022-08-27T11:10:06.019Z,98163.13
2022-08-27T11:12:40.128Z,98158.91
2022-08-27T11:15:15.974Z,98151.59
2022-08-27T11:17:51.631Z,98151.44
2022-08-27T11:20:25.420Z,98150.00
2022-08-27T11:23:02.996Z,98148.47
2022-08-27T11:25:44.218Z,98157.31
2022-08-27T11:28:14.614Z,98156.00
2022-08-27T11:30:59.342Z,98149.25
2022-08-27T11:33:37.707Z,98155.47
2022-08-27T11:36:33.717Z,98148.78
2022-08-27T11:39:13.726Z,98158.34
2022-08-27T11:42:03.629Z,98152.78
2022-08-27T11:44:33.815Z,98152.66
2022-08-27T11:47:14.339Z,98152.53
2022-08-27T11:49:51.143Z,98148.47
2022-08-27T11:52:29.271Z,98153.22
2022-08-27T11:55:17.407Z,98145.91
2022-08-27T11:57:47.885Z,98142.91
2022-08-27T12:00:22.025Z,98143.25
2022-08-27T12:03:00.858Z,98143.47
2022-08-27T12:05:40.001Z,98135.91
2022-08-27T12:08:21.237Z,98144.94
2022-08-27T12:11:06.548Z,98135.13
2022-08-27T12:13:42.061Z,98128.56
2022-08-27T12:16:25.010Z,98131.00
2022-08-27T12:19:14.318Z,98134.13
2022-08-27T12:21:53.414Z,98134.88
2022-08-27T12:24:50.258Z,98135.56
2022-08-27T12:27:37.159Z,98141.34
2022-08-27T12:30:21.241Z,98142.88
2022-08-27T12:32:54.580Z,98137.31
2022-08-27T12:35:29.722Z,98132.66
2022-08-27T12:38:14.035Z,98130.41
2022-08-27T12:40:50.797Z,98126.97
2022-08-27T12:43:27.529Z,98128.59
2022-08-27T12:46:02.514Z,98131.03
2022-08-27T12:48:39.563Z,98131.25
2022-08-27T12:51:15.185Z,98137.63
2022-08-27T12:53:47.877Z,98130.69
2022-08-27T12:56:40.468Z,98131.78
2022-08-27T12:59:31.815Z,98130.34
2022-08-27T13:02:10.226Z,98129.56
2022-08-27T13:04:43.871Z,98130.16
2022-08-27T13:07:13.569Z,98127.81
2022-08-27T13:09:43.257Z,98127.22
2022-08-27T13:12:20.064Z,98120.28
2022-08-27T13:14:56.895Z,98130.78
2022-08-27T13:17:26.986Z,98132.75
2022-08-27T13:20:02.202Z,98121.50
2022-08-27T13:22:34.496Z,98125.47
2022-08-27T13:25:05.019Z,98121.91
2022-08-27T13:27:37.274Z,98122.94
2022-08-27T13:30:30.893Z,98123.38
2022-08-27T13:33:04.110Z,98123.31
2022-08-27T13:35:34.327Z,98116.84
2022-08-27T13:38:06.262Z,98123.72
2022-08-27T13:40:38.786Z,98122.09
2022-08-27T13:43:12.476Z,98115.38
2022-08-27T13:45:45.697Z,98111.94
2022-08-27T13:48:15.904Z,98121.38
2022-08-27T13:50:52.654Z,98115.06
2022-08-27T13:53:39.941Z,98116.72
2022-08-27T13:56:10.354Z,98118.03
2022-08-27T13:58:40.527Z,98115.63
2022-08-27T14:01:16.012Z,98117.88
2022-08-27T14:03:52.102Z,98112.22
2022-08-27T14:06:36.129Z,98108.59
2022-08-27T14:09:19.816Z,98112.03
2022-08-27T14:11:50.196Z,98113.22
2022-08-27T14:14:21.549Z,98102.78
2022-08-27T14:17:02.508Z,98105.75
2022-08-27T14:19:37.076Z,98107.22
2022-08-27T14:22:07.635Z,98105.84
2022-08-27T14:24:37.330Z,98102.31
2022-08-27T14:27:10.825Z,98102.63
2022-08-27T14:29:40.658Z,98091.25
2022-08-27T14:32:13.210Z,98098.09
2022-08-27T14:34:43.123Z,98100.94
2022-08-27T14:37:13.013Z,98103.25
2022-08-27T14:39:44.844Z,98101.88
2022-08-27T14:42:15.343Z,98106.16
2022-08-27T14:44:45.105Z,98104.06
2022-08-27T14:47:18.928Z,98101.00
2022-08-27T14:49:50.272Z,98096.41
2022-08-27T14:52:19.992Z,98098.88
2022-08-27T14:54:49.725Z,98096.66
2022-08-27T14:57:19.561Z,98092.97
2022-08-27T14:59:49.265Z,98096.53
2022-08-27T15:02:23.424Z,98105.53
2022-08-27T15:04:53.461Z,98103.84
2022-08-27T15:07:23.525Z,98103.66
2022-08-27T15:09:55.534Z,98098.91
2022-08-27T15:12:26.395Z,98100.75
2022-08-27T15:14:57.129Z,98095.75
2022-08-27T15:17:35.535Z,98099.78
2022-08-27T15:20:06.623Z,98100.69
2022-08-27T15:22:40.210Z,98097.84
2022-08-27T15:25:14.697Z,98103.28
2022-08-27T15:27:44.679Z,98103.91
2022-08-27T15:30:17.095Z,98111.69
2022-08-27T15:32:51.414Z,98108.72
2022-08-27T15:35:27.971Z,98108.56
2022-08-27T15:37:59.964Z,98094.34
2022-08-27T15:40:31.963Z,98095.75
2022-08-27T15:43:04.947Z,98090.84
2022-08-27T15:45:36.679Z,98092.66
2022-08-27T15:48:10.802Z,98089.94
2022-08-27T15:50:40.844Z,98082.63
2022-08-27T15:53:11.354Z,98075.09
2022-08-27T15:55:44.447Z,98079.72
2022-08-27T15:58:14.819Z,98078.66
2022-08-27T16:00:46.561Z,98078.72
2022-08-27T16:03:19.605Z,98085.09
2022-08-27T16:05:57.978Z,98082.31
2022-08-27T16:08:29.391Z,98080.78
2022-08-27T16:11:03.880Z,98086.00
2022-08-27T16:13:33.842Z,98090.03
2022-08-27T16:16:03.990Z,98085.97
2022-08-27T16:18:38.076Z,98089.94
2022-08-27T16:21:08.240Z,98091.75
2022-08-27T16:23:38.618Z,98089.59
2022-08-27T16:26:08.775Z,98090.38
2022-08-27T16:28:38.529Z,98093.75
2022-08-27T16:31:10.378Z,98085.97
2022-08-27T16:33:45.432Z,98098.34
2022-08-27T16:36:15.773Z,98087.38
2022-08-27T16:38:45.643Z,98089.16
2022-08-27T16:41:16.284Z,98095.63
2022-08-27T16:43:48.968Z,98097.91
2022-08-27T16:46:18.804Z,98092.81
2022-08-27T16:49:03.744Z,98092.06
2022-08-27T16:51:35.865Z,98098.31
2022-08-27T16:54:07.572Z,98097.53
2022-08-27T16:56:37.726Z,98096.22
2022-08-27T16:59:08.297Z,98105.34
2022-08-27T17:01:38.102Z,98102.56
2022-08-27T17:04:19.360Z,98098.69
2022-08-27T17:06:56.786Z,98098.50
2022-08-27T17:09:28.081Z,98090.47
2022-08-27T17:12:01.072Z,98096.81
2022-08-27T17:14:39.710Z,98103.72
2022-08-27T17:17:09.799Z,98114.94
2022-08-27T17:19:42.152Z,98114.16
2022-08-27T17:22:12.176Z,98114.88
2022-08-27T17:24:41.912Z,98115.75
2022-08-27T17:27:11.960Z,98110.41
2022-08-27T17:29:41.690Z,98120.09
2022-08-27T17:32:11.970Z,98116.31
2022-08-27T17:34:44.347Z,98119.66
2022-08-27T17:37:14.104Z,98113.34
2022-08-27T17:39:44.017Z,98123.31
2022-08-27T17:42:13.774Z,98124.09
2022-08-27T17:44:43.509Z,98122.00
2022-08-27T17:47:13.257Z,98121.09
2022-08-27T17:49:45.588Z,98113.47
2022-08-27T17:52:17.544Z,98118.47
2022-08-27T17:54:51.077Z,98116.13
2022-08-27T17:57:23.617Z,98118.25
2022-08-27T17:59:54.194Z,98115.91
2022-08-27T18:02:26.302Z,98118.56
2022-08-27T18:04:59.304Z,98121.47
2022-08-27T18:07:30.545Z,98129.94
2022-08-27T18:10:00.445Z,98133.00
2022-08-27T18:12:30.492Z,98132.25
2022-08-27T18:15:05.985Z,98132.91
2022-08-27T18:17:36.084Z,98140.16
2022-08-27T18:20:12.888Z,98147.16
2022-08-27T18:22:48.196Z,98149.69
2022-08-27T18:25:20.763Z,98160.00
2022-08-27T18:27:52.888Z,98152.88
2022-08-27T18:30:23.166Z,98150.56
2022-08-27T18:32:53.048Z,98164.28
2022-08-27T18:35:27.784Z,98150.75
2022-08-27T18:37:57.986Z,98157.44
2022-08-27T18:40:29.720Z,98159.31
2022-08-27T18:43:00.554Z,98164.66
2022-08-27T18:45:33.309Z,98171.31
2022-08-27T18:48:03.314Z,98170.44
2022-08-27T18:50:35.614Z,98174.09
2022-08-27T18:53:05.813Z,98181.31
2022-08-27T18:55:35.552Z,98180.97
2022-08-27T18:58:05.209Z,98180.53
2022-08-27T19:00:35.068Z,98183.53
2022-08-27T19:03:04.814Z,98179.84
2022-08-27T19:05:37.201Z,98181.50
2022-08-27T19:08:07.430Z,98177.38
2022-08-27T19:10:37.177Z,98180.72
2022-08-27T19:13:06.850Z,98184.16
2022-08-27T19:15:36.649Z,98184.81
2022-08-27T19:18:09.270Z,98196.56
2022-08-27T19:20:41.599Z,98202.91
2022-08-27T19:23:11.242Z,98199.09
2022-08-27T19:25:41.996Z,98200.88
2022-08-27T19:28:12.024Z,98195.22
2022-08-27T19:30:41.929Z,98201.56
2022-08-27T19:33:11.666Z,98207.78
2022-08-27T19:35:45.539Z,98206.22
2022-08-27T19:38:16.520Z,98211.13
2022-08-27T19:40:46.408Z,98224.44
2022-08-27T19:43:16.060Z,98224.44
2022-08-27T19:45:45.748Z,98225.19
2022-08-27T19:48:16.728Z,98224.28
2022-08-27T19:50:48.970Z,98222.72
2022-08-27T19:53:20.686Z,98223.38
2022-08-27T19:55:50.463Z,98222.38
2022-08-27T19:58:21.700Z,98221.72
2022-08-27T20:00:52.022Z,98221.00
2022-08-27T20:03:22.275Z,98220.47
2022-08-27T20:05:55.035Z,98216.69
2022-08-27T20:08:24.901Z,98217.03
2022-08-27T20:10:54.584Z,98216.16
2022-08-27T20:13:24.377Z,98217.03
2022-08-27T20:15:54.076Z,98213.16
2022-08-27T20:18:23.828Z,98214.34
2022-08-27T20:20:56.157Z,98222.00
2022-08-27T20:23:25.923Z,98220.88
2022-08-27T20:26:00.954Z,98216.03
2022-08-27T20:28:39.902Z,98224.34
2022-08-27T20:31:10.852Z,98216.56
2022-08-27T20:33:40.798Z,98216.63
2022-08-27T20:36:15.280Z,98215.09
2022-08-27T20:38:45.644Z,98214.72
2022-08-27T20:41:15.386Z,98218.25
2022-08-27T20:43:45.096Z,98217.34
2022-08-27T20:46:15.147Z,98218.00
2022-08-27T20:48:45.178Z,98214.34
2022-08-27T20:51:17.514Z,98220.34
2022-08-27T20:53:47.320Z,98217.41
2022-08-27T20:56:17.108Z,98214.63
2022-08-27T20:58:59.380Z,98209.88
2022-08-27T21:01:29.163Z,98217.41
2022-08-27T21:03:59.921Z,98217.41
2022-08-27T21:06:33.575Z,98223.66
2022-08-27T21:09:03.375Z,98217.22
2022-08-27T21:11:35.509Z,98222.41
2022-08-27T21:14:05.162Z,98229.19
2022-08-27T21:16:36.292Z,98222.53
2022-08-27T21:19:06.106Z,98221.31
2022-08-27T21:21:38.429Z,98228.50
2022-08-27T21:24:08.741Z,98228.84
2022-08-27T21:26:38.505Z,98234.03
2022-08-27T21:29:08.370Z,98234.13
2022-08-27T21:31:38.089Z,98231.88
2022-08-27T21:34:07.866Z,98230.22
2022-08-27T21:36:40.170Z,98236.66
2022-08-27T21:39:10.713Z,98227.97
2022-08-27T21:41:40.901Z,98233.00
2022-08-27T21:44:10.621Z,98230.56
2022-08-27T21:46:40.395Z,98234.03
2022-08-27T21:49:10.290Z,98237.94
2022-08-27T21:51:44.550Z,98237.94
2022-08-27T21:54:14.289Z,98240.28
2022-08-27T21:56:44.017Z,98243.59
2022-08-27T21:59:13.873Z,98240.66
2022-08-27T22:01:43.549Z,98243.84
2022-08-27T22:04:13.447Z,98251.38
2022-08-27T22:06:45.732Z,98247.38
2022-08-27T22:09:15.508Z,98244.19
2022-08-27T22:11:46.125Z,98246.72
2022-08-27T22:14:16.063Z,98244.97
2022-08-27T22:16:45.782Z,98242.97
2022-08-27T22:19:15.484Z,98238.53
2022-08-27T22:21:48.020Z,98236.13
2022-08-27T22:24:18.034Z,98237.94
2022-08-27T22:26:47.743Z,98235.28
2022-08-27T22:29:17.471Z,98239.16
2022-08-27T22:31:47.329Z,98241.66
2022-08-27T22:34:17.125Z,98234.41
2022-08-27T22:36:49.991Z,98233.53
2022-08-27T22:39:19.767Z,98234.41
2022-08-27T22:41:49.876Z,98237.88
2022-08-27T22:44:21.161Z,98235.53
2022-08-27T22:46:52.007Z,98242.53
2022-08-27T22:49:21.815Z,98240.66
2022-08-27T22:51:54.120Z,98241.31
2022-08-27T22:54:23.900Z,98243.59
2022-08-27T22:56:53.630Z,98234.31
2022-08-27T22:59:23.352Z,98233.00
2022-08-27T23:01:53.260Z,98228.50
2022-08-27T23:04:34.703Z,98230.94
2022-08-27T23:07:15.650Z,98228.06
2022-08-27T23:09:45.408Z,98229.03
2022-08-27T23:12:16.719Z,98229.66
2022-08-27T23:14:46.444Z,98224.03
2022-08-27T23:17:16.219Z,98230.09
2022-08-27T23:19:46.334Z,98229.28
2022-08-27T23:22:18.641Z,98227.41
2022-08-27T23:25:00.714Z,98232.53
2022-08-27T23:27:32.970Z,98229.03
2022-08-27T23:30:05.211Z,98224.88
2022-08-27T23:32:34.951Z,98220.47
2022-08-27T23:35:04.713Z,98219.25
2022-08-27T23:37:37.206Z,98218.63
2022-08-27T23:40:09.082Z,98220.38
2022-08-27T23:42:39.405Z,98228.19
2022-08-27T23:45:11.120Z,98221.44
2022-08-27T23:47:40.928Z,98221.53
2022-08-27T23:50:11.790Z,98223.75
2022-08-27T23:52:44.350Z,98224.63
2022-08-27T23:55:15.287Z,98227.56
2022-08-27T23:57:45.064Z,98223.84
